sensor_id;sensor_type;location;lat;lon;timestamp;temperature;humidity
23719;DHT22;43322;52.230;5.702;2023-11-21T00:01:54;7.10;99.90
23719;DHT22;43322;52.230;5.702;2023-11-21T00:04:22;7.10;99.90
23719;DHT22;43322;52.230;5.702;2023-11-21T00:06:50;7.10;99.90
23719;DHT22;43322;52.230;5.702;2023-11-21T00:09:17;7.00;99.90
23719;DHT22;43322;52.230;5.702;2023-11-21T00:11:45;7.00;99.90
23719;DHT22;43322;52.230;5.702;2023-11-21T00:14:12;7.00;99.90
23719;DHT22;43322;52.230;5.702;2023-11-21T00:16:40;7.00;99.90
23719;DHT22;43322;52.230;5.702;2023-11-21T00:19:07;7.00;99.90
23719;DHT22;43322;52.230;5.702;2023-11-21T00:21:33;7.00;99.90
23719;DHT22;43322;52.230;5.702;2023-11-21T00:24:01;7.10;99.90
23719;DHT22;43322;52.230;5.702;2023-11-21T00:26:28;7.10;99.90
23719;DHT22;43322;52.230;5.702;2023-11-21T00:28:56;7.00;99.90
23719;DHT22;43322;52.230;5.702;2023-11-21T00:31:23;7.10;99.90
23719;DHT22;43322;52.230;5.702;2023-11-21T00:33:50;7.10;99.90
23719;DHT22;43322;52.230;5.702;2023-11-21T00:36:16;7.10;99.90
23719;DHT22;43322;52.230;5.702;2023-11-21T00:38:43;7.10;99.90
23719;DHT22;43322;52.230;5.702;2023-11-21T00:41:10;7.10;99.90
23719;DHT22;43322;52.230;5.702;2023-11-21T00:43:37;7.20;99.90
23719;DHT22;43322;52.230;5.702;2023-11-21T00:46:04;7.30;99.90
23719;DHT22;43322;52.230;5.702;2023-11-21T00:48:32;7.30;99.90
23719;DHT22;43322;52.230;5.702;2023-11-21T00:50:59;7.50;99.90
23719;DHT22;43322;52.230;5.702;2023-11-21T00:53:26;7.60;99.90
23719;DHT22;43322;52.230;5.702;2023-11-21T00:55:53;7.60;99.90
23719;DHT22;43322;52.230;5.702;2023-11-21T00:58:24;7.60;99.90
23719;DHT22;43322;52.230;5.702;2023-11-21T01:00:51;7.60;99.90
23719;DHT22;43322;52.230;5.702;2023-11-21T01:03:18;7.60;99.90
23719;DHT22;43322;52.230;5.702;2023-11-21T01:05:45;7.50;99.90
23719;DHT22;43322;52.230;5.702;2023-11-21T01:08:12;7.40;99.90
23719;DHT22;43322;52.230;5.702;2023-11-21T01:10:38;7.30;99.90
23719;DHT22;43322;52.230;5.702;2023-11-21T01:13:05;7.30;99.90
23719;DHT22;43322;52.230;5.702;2023-11-21T01:15:34;7.30;99.90
23719;DHT22;43322;52.230;5.702;2023-11-21T01:18:00;7.40;99.90
23719;DHT22;43322;52.230;5.702;2023-11-21T01:20:29;7.40;99.90
23719;DHT22;43322;52.230;5.702;2023-11-21T01:22:55;7.40;99.90
23719;DHT22;43322;52.230;5.702;2023-11-21T01:25:22;7.40;99.90
23719;DHT22;43322;52.230;5.702;2023-11-21T01:27:49;7.40;99.90
23719;DHT22;43322;52.230;5.702;2023-11-21T01:30:15;7.40;99.90
23719;DHT22;43322;52.230;5.702;2023-11-21T01:32:43;7.60;99.90
23719;DHT22;43322;52.230;5.702;2023-11-21T01:35:10;7.60;99.90
23719;DHT22;43322;52.230;5.702;2023-11-21T01:37:37;7.50;99.90
23719;DHT22;43322;52.230;5.702;2023-11-21T01:40:04;7.40;99.90
23719;DHT22;43322;52.230;5.702;2023-11-21T01:42:35;7.40;99.90
23719;DHT22;43322;52.230;5.702;2023-11-21T01:45:02;7.40;99.90
23719;DHT22;43322;52.230;5.702;2023-11-21T01:47:30;7.50;99.90
23719;DHT22;43322;52.230;5.702;2023-11-21T01:49:59;7.50;99.90
23719;DHT22;43322;52.230;5.702;2023-11-21T01:52:26;7.60;99.90
23719;DHT22;43322;52.230;5.702;2023-11-21T01:54:53;7.50;99.90
23719;DHT22;43322;52.230;5.702;2023-11-21T01:57:20;7.50;99.90
23719;DHT22;43322;52.230;5.702;2023-11-21T01:59:49;7.60;99.90
23719;DHT22;43322;52.230;5.702;2023-11-21T02:02:16;7.60;99.90
23719;DHT22;43322;52.230;5.702;2023-11-21T02:04:43;7.50;99.90
23719;DHT22;43322;52.230;5.702;2023-11-21T02:07:11;7.60;99.90
23719;DHT22;43322;52.230;5.702;2023-11-21T02:09:38;7.60;99.90
23719;DHT22;43322;52.230;5.702;2023-11-21T02:12:08;7.50;99.90
23719;DHT22;43322;52.230;5.702;2023-11-21T02:14:36;7.50;99.90
23719;DHT22;43322;52.230;5.702;2023-11-21T02:17:03;7.50;99.90
23719;DHT22;43322;52.230;5.702;2023-11-21T02:19:30;7.50;99.90
23719;DHT22;43322;52.230;5.702;2023-11-21T02:21:59;7.50;99.90
23719;DHT22;43322;52.230;5.702;2023-11-21T02:24:30;7.60;99.90
23719;DHT22;43322;52.230;5.702;2023-11-21T02:26:57;7.60;99.90
23719;DHT22;43322;52.230;5.702;2023-11-21T02:29:24;7.60;99.90
23719;DHT22;43322;52.230;5.702;2023-11-21T02:31:54;7.70;99.90
23719;DHT22;43322;52.230;5.702;2023-11-21T02:34:22;7.70;99.90
23719;DHT22;43322;52.230;5.702;2023-11-21T02:36:49;7.70;99.90
23719;DHT22;43322;52.230;5.702;2023-11-21T02:39:17;7.80;99.90
23719;DHT22;43322;52.230;5.702;2023-11-21T02:41:48;7.80;99.90
23719;DHT22;43322;52.230;5.702;2023-11-21T02:44:15;7.90;99.90
23719;DHT22;43322;52.230;5.702;2023-11-21T02:46:42;7.90;99.90
23719;DHT22;43322;52.230;5.702;2023-11-21T02:49:09;8.00;99.90
23719;DHT22;43322;52.230;5.702;2023-11-21T02:51:35;8.10;99.90
23719;DHT22;43322;52.230;5.702;2023-11-21T02:54:03;8.20;99.90
23719;DHT22;43322;52.230;5.702;2023-11-21T02:56:32;8.10;99.90
23719;DHT22;43322;52.230;5.702;2023-11-21T02:59:01;7.80;99.90
23719;DHT22;43322;52.230;5.702;2023-11-21T03:01:28;8.20;99.90
23719;DHT22;43322;52.230;5.702;2023-11-21T03:03:54;7.80;99.90
23719;DHT22;43322;52.230;5.702;2023-11-21T03:06:22;7.80;99.90
23719;DHT22;43322;52.230;5.702;2023-11-21T03:08:49;7.60;99.90
23719;DHT22;43322;52.230;5.702;2023-11-21T03:11:16;7.60;99.90
23719;DHT22;43322;52.230;5.702;2023-11-21T03:13:43;7.60;99.90
23719;DHT22;43322;52.230;5.702;2023-11-21T03:16:12;7.70;99.90
23719;DHT22;43322;52.230;5.702;2023-11-21T03:18:39;7.80;99.90
23719;DHT22;43322;52.230;5.702;2023-11-21T03:21:06;7.90;99.90
23719;DHT22;43322;52.230;5.702;2023-11-21T03:23:34;7.90;99.90
23719;DHT22;43322;52.230;5.702;2023-11-21T03:26:01;8.10;99.90
23719;DHT22;43322;52.230;5.702;2023-11-21T03:28:27;8.10;99.90
23719;DHT22;43322;52.230;5.702;2023-11-21T03:30:56;8.10;99.90
23719;DHT22;43322;52.230;5.702;2023-11-21T03:33:24;8.00;99.90
23719;DHT22;43322;52.230;5.702;2023-11-21T03:35:50;8.00;99.90
23719;DHT22;43322;52.230;5.702;2023-11-21T03:38:18;8.00;99.90
23719;DHT22;43322;52.230;5.702;2023-11-21T03:40:45;8.00;99.90
23719;DHT22;43322;52.230;5.702;2023-11-21T03:43:13;8.00;99.90
23719;DHT22;43322;52.230;5.702;2023-11-21T03:45:39;8.00;99.90
23719;DHT22;43322;52.230;5.702;2023-11-21T03:48:07;7.90;99.90
23719;DHT22;43322;52.230;5.702;2023-11-21T03:50:35;7.90;99.90
23719;DHT22;43322;52.230;5.702;2023-11-21T03:53:02;7.90;99.90
23719;DHT22;43322;52.230;5.702;2023-11-21T03:55:29;8.10;99.90
23719;DHT22;43322;52.230;5.702;2023-11-21T03:57:57;7.90;99.90
23719;DHT22;43322;52.230;5.702;2023-11-21T04:00:24;7.80;99.90
23719;DHT22;43322;52.230;5.702;2023-11-21T04:02:52;7.80;99.90
23719;DHT22;43322;52.230;5.702;2023-11-21T04:05:20;7.90;99.90
23719;DHT22;43322;52.230;5.702;2023-11-21T04:07:48;7.90;99.90
23719;DHT22;43322;52.230;5.702;2023-11-21T04:10:15;8.00;99.90
23719;DHT22;43322;52.230;5.702;2023-11-21T04:12:42;8.00;99.90
23719;DHT22;43322;52.230;5.702;2023-11-21T04:15:09;8.10;99.90
23719;DHT22;43322;52.230;5.702;2023-11-21T04:17:36;8.10;99.90
23719;DHT22;43322;52.230;5.702;2023-11-21T04:20:03;8.10;99.90
23719;DHT22;43322;52.230;5.702;2023-11-21T04:22:33;8.10;99.90
23719;DHT22;43322;52.230;5.702;2023-11-21T04:25:01;8.10;99.90
23719;DHT22;43322;52.230;5.702;2023-11-21T04:27:28;8.10;99.90
23719;DHT22;43322;52.230;5.702;2023-11-21T04:29:55;8.10;99.90
23719;DHT22;43322;52.230;5.702;2023-11-21T04:32:21;8.10;99.90
23719;DHT22;43322;52.230;5.702;2023-11-21T04:34:48;8.00;99.90
23719;DHT22;43322;52.230;5.702;2023-11-21T04:37:15;8.10;99.90
23719;DHT22;43322;52.230;5.702;2023-11-21T04:39:41;8.10;99.90
23719;DHT22;43322;52.230;5.702;2023-11-21T04:42:09;8.10;99.90
23719;DHT22;43322;52.230;5.702;2023-11-21T04:44:38;8.20;99.90
23719;DHT22;43322;52.230;5.702;2023-11-21T04:47:06;8.20;99.90
23719;DHT22;43322;52.230;5.702;2023-11-21T04:49:33;8.20;99.90
23719;DHT22;43322;52.230;5.702;2023-11-21T04:52:00;8.20;99.90
23719;DHT22;43322;52.230;5.702;2023-11-21T04:54:27;8.10;99.90
23719;DHT22;43322;52.230;5.702;2023-11-21T04:56:53;8.10;99.90
23719;DHT22;43322;52.230;5.702;2023-11-21T04:59:21;8.10;99.90
23719;DHT22;43322;52.230;5.702;2023-11-21T05:01:50;8.20;99.90
23719;DHT22;43322;52.230;5.702;2023-11-21T05:04:16;8.30;99.90
23719;DHT22;43322;52.230;5.702;2023-11-21T05:06:43;8.30;99.90
23719;DHT22;43322;52.230;5.702;2023-11-21T05:09:10;8.40;99.90
23719;DHT22;43322;52.230;5.702;2023-11-21T05:11:38;8.30;99.90
23719;DHT22;43322;52.230;5.702;2023-11-21T05:14:06;8.40;99.90
23719;DHT22;43322;52.230;5.702;2023-11-21T05:16:35;8.40;99.90
23719;DHT22;43322;52.230;5.702;2023-11-21T05:19:02;8.30;99.90
23719;DHT22;43322;52.230;5.702;2023-11-21T05:21:30;8.30;99.90
23719;DHT22;43322;52.230;5.702;2023-11-21T05:23:57;8.30;99.90
23719;DHT22;43322;52.230;5.702;2023-11-21T05:26:23;8.30;99.90
23719;DHT22;43322;52.230;5.702;2023-11-21T05:28:50;8.30;99.90
23719;DHT22;43322;52.230;5.702;2023-11-21T05:31:17;8.20;99.90
23719;DHT22;43322;52.230;5.702;2023-11-21T05:33:45;8.40;99.90
23719;DHT22;43322;52.230;5.702;2023-11-21T05:36:11;8.40;99.90
23719;DHT22;43322;52.230;5.702;2023-11-21T05:38:38;8.40;99.90
23719;DHT22;43322;52.230;5.702;2023-11-21T05:41:05;8.40;99.90
23719;DHT22;43322;52.230;5.702;2023-11-21T05:43:32;8.40;99.90
23719;DHT22;43322;52.230;5.702;2023-11-21T05:46:00;8.40;99.90
23719;DHT22;43322;52.230;5.702;2023-11-21T05:48:27;8.40;99.90
23719;DHT22;43322;52.230;5.702;2023-11-21T05:50:55;8.50;99.90
23719;DHT22;43322;52.230;5.702;2023-11-21T05:53:22;8.50;99.90
23719;DHT22;43322;52.230;5.702;2023-11-21T05:55:48;8.60;99.90
23719;DHT22;43322;52.230;5.702;2023-11-21T05:58:15;8.60;99.90
23719;DHT22;43322;52.230;5.702;2023-11-21T06:00:42;8.60;99.90
23719;DHT22;43322;52.230;5.702;2023-11-21T06:03:08;8.60;99.90
23719;DHT22;43322;52.230;5.702;2023-11-21T06:05:35;8.60;99.90
23719;DHT22;43322;52.230;5.702;2023-11-21T06:08:03;8.60;99.90
23719;DHT22;43322;52.230;5.702;2023-11-21T06:10:32;8.60;99.90
23719;DHT22;43322;52.230;5.702;2023-11-21T06:12:59;8.60;99.90
23719;DHT22;43322;52.230;5.702;2023-11-21T06:15:26;8.60;99.90
23719;DHT22;43322;52.230;5.702;2023-11-21T06:17:53;8.60;99.90
23719;DHT22;43322;52.230;5.702;2023-11-21T06:20:20;8.70;99.90
23719;DHT22;43322;52.230;5.702;2023-11-21T06:22:49;8.70;99.90
23719;DHT22;43322;52.230;5.702;2023-11-21T06:25:17;8.80;99.90
23719;DHT22;43322;52.230;5.702;2023-11-21T06:27:45;8.70;99.90
23719;DHT22;43322;52.230;5.702;2023-11-21T06:30:13;8.70;99.90
23719;DHT22;43322;52.230;5.702;2023-11-21T06:32:41;8.70;99.90
23719;DHT22;43322;52.230;5.702;2023-11-21T06:35:11;8.70;99.90
23719;DHT22;43322;52.230;5.702;2023-11-21T06:37:38;8.70;99.90
23719;DHT22;43322;52.230;5.702;2023-11-21T06:40:06;8.70;99.90
23719;DHT22;43322;52.230;5.702;2023-11-21T06:42:36;8.70;99.90
23719;DHT22;43322;52.230;5.702;2023-11-21T06:45:04;8.60;99.90
23719;DHT22;43322;52.230;5.702;2023-11-21T06:47:31;8.60;99.90
23719;DHT22;43322;52.230;5.702;2023-11-21T06:49:58;8.60;99.90
23719;DHT22;43322;52.230;5.702;2023-11-21T06:52:26;8.60;99.90
23719;DHT22;43322;52.230;5.702;2023-11-21T06:54:52;8.60;99.90
23719;DHT22;43322;52.230;5.702;2023-11-21T06:57:20;8.60;99.90
23719;DHT22;43322;52.230;5.702;2023-11-21T06:59:48;8.60;99.90
23719;DHT22;43322;52.230;5.702;2023-11-21T07:02:15;8.60;99.90
23719;DHT22;43322;52.230;5.702;2023-11-21T07:04:43;8.60;99.90
23719;DHT22;43322;52.230;5.702;2023-11-21T07:07:10;8.70;99.90
23719;DHT22;43322;52.230;5.702;2023-11-21T07:09:37;8.60;99.90
23719;DHT22;43322;52.230;5.702;2023-11-21T07:12:04;8.60;99.90
23719;DHT22;43322;52.230;5.702;2023-11-21T07:14:33;8.70;99.90
23719;DHT22;43322;52.230;5.702;2023-11-21T07:17:01;8.70;99.90
23719;DHT22;43322;52.230;5.702;2023-11-21T07:19:27;8.70;99.90
23719;DHT22;43322;52.230;5.702;2023-11-21T07:21:54;8.70;99.90
23719;DHT22;43322;52.230;5.702;2023-11-21T07:24:21;8.80;99.90
23719;DHT22;43322;52.230;5.702;2023-11-21T07:26:49;8.80;99.90
23719;DHT22;43322;52.230;5.702;2023-11-21T07:29:15;8.80;99.90
23719;DHT22;43322;52.230;5.702;2023-11-21T07:31:42;8.80;99.90
23719;DHT22;43322;52.230;5.702;2023-11-21T07:34:10;8.90;99.90
23719;DHT22;43322;52.230;5.702;2023-11-21T07:36:37;9.00;99.90
23719;DHT22;43322;52.230;5.702;2023-11-21T07:39:04;9.00;99.90
23719;DHT22;43322;52.230;5.702;2023-11-21T07:41:33;9.00;99.90
23719;DHT22;43322;52.230;5.702;2023-11-21T07:44:00;9.00;99.90
23719;DHT22;43322;52.230;5.702;2023-11-21T07:46:27;9.00;99.90
23719;DHT22;43322;52.230;5.702;2023-11-21T07:48:54;9.00;99.90
23719;DHT22;43322;52.230;5.702;2023-11-21T07:51:22;9.00;99.90
23719;DHT22;43322;52.230;5.702;2023-11-21T07:53:48;9.10;99.90
23719;DHT22;43322;52.230;5.702;2023-11-21T07:56:15;9.10;99.90
23719;DHT22;43322;52.230;5.702;2023-11-21T07:58:42;9.10;99.90
23719;DHT22;43322;52.230;5.702;2023-11-21T08:01:09;9.10;99.90
23719;DHT22;43322;52.230;5.702;2023-11-21T08:03:37;9.10;99.90
23719;DHT22;43322;52.230;5.702;2023-11-21T08:06:04;9.20;99.90
23719;DHT22;43322;52.230;5.702;2023-11-21T08:08:32;9.20;99.90
23719;DHT22;43322;52.230;5.702;2023-11-21T08:10:59;9.20;99.90
23719;DHT22;43322;52.230;5.702;2023-11-21T08:13:28;9.30;99.90
23719;DHT22;43322;52.230;5.702;2023-11-21T08:15:56;9.30;99.90
23719;DHT22;43322;52.230;5.702;2023-11-21T08:18:27;9.30;99.90
23719;DHT22;43322;52.230;5.702;2023-11-21T08:20:54;9.30;99.90
23719;DHT22;43322;52.230;5.702;2023-11-21T08:23:22;9.30;99.90
23719;DHT22;43322;52.230;5.702;2023-11-21T08:25:52;9.30;99.90
23719;DHT22;43322;52.230;5.702;2023-11-21T08:28:19;9.40;99.90
23719;DHT22;43322;52.230;5.702;2023-11-21T08:30:48;9.40;99.90
23719;DHT22;43322;52.230;5.702;2023-11-21T08:33:15;9.40;99.90
23719;DHT22;43322;52.230;5.702;2023-11-21T08:35:42;9.40;99.90
23719;DHT22;43322;52.230;5.702;2023-11-21T08:38:08;9.40;99.90
23719;DHT22;43322;52.230;5.702;2023-11-21T08:40:36;9.40;99.90
23719;DHT22;43322;52.230;5.702;2023-11-21T08:43:04;9.50;99.90
23719;DHT22;43322;52.230;5.702;2023-11-21T08:45:31;9.50;99.90
23719;DHT22;43322;52.230;5.702;2023-11-21T08:47:59;9.50;99.90
23719;DHT22;43322;52.230;5.702;2023-11-21T08:50:26;9.50;99.90
23719;DHT22;43322;52.230;5.702;2023-11-21T08:52:52;9.60;99.90
23719;DHT22;43322;52.230;5.702;2023-11-21T08:55:19;9.70;99.90
23719;DHT22;43322;52.230;5.702;2023-11-21T08:57:46;9.80;99.90
23719;DHT22;43322;52.230;5.702;2023-11-21T09:00:15;9.80;99.90
23719;DHT22;43322;52.230;5.702;2023-11-21T09:02:43;9.90;99.90
23719;DHT22;43322;52.230;5.702;2023-11-21T09:05:10;9.90;99.90
23719;DHT22;43322;52.230;5.702;2023-11-21T09:07:39;10.00;99.90
23719;DHT22;43322;52.230;5.702;2023-11-21T09:10:07;10.10;99.90
23719;DHT22;43322;52.230;5.702;2023-11-21T09:12:35;10.20;99.90
23719;DHT22;43322;52.230;5.702;2023-11-21T09:15:02;10.40;99.90
23719;DHT22;43322;52.230;5.702;2023-11-21T09:17:32;10.50;99.90
23719;DHT22;43322;52.230;5.702;2023-11-21T09:19:59;10.50;99.90
23719;DHT22;43322;52.230;5.702;2023-11-21T09:22:26;10.50;99.90
23719;DHT22;43322;52.230;5.702;2023-11-21T09:24:55;10.50;99.90
23719;DHT22;43322;52.230;5.702;2023-11-21T09:27:23;10.40;99.90
23719;DHT22;43322;52.230;5.702;2023-11-21T09:29:51;10.40;99.90
23719;DHT22;43322;52.230;5.702;2023-11-21T09:32:18;10.40;99.90
23719;DHT22;43322;52.230;5.702;2023-11-21T09:34:48;10.40;99.90
23719;DHT22;43322;52.230;5.702;2023-11-21T09:37:14;10.30;99.90
23719;DHT22;43322;52.230;5.702;2023-11-21T09:39:41;10.40;99.90
23719;DHT22;43322;52.230;5.702;2023-11-21T09:42:10;10.30;99.90
23719;DHT22;43322;52.230;5.702;2023-11-21T09:44:45;10.30;99.90
23719;DHT22;43322;52.230;5.702;2023-11-21T09:47:15;10.30;99.90
23719;DHT22;43322;52.230;5.702;2023-11-21T09:49:45;10.30;99.90
23719;DHT22;43322;52.230;5.702;2023-11-21T09:52:20;10.30;99.90
23719;DHT22;43322;52.230;5.702;2023-11-21T09:54:51;10.20;99.90
23719;DHT22;43322;52.230;5.702;2023-11-21T09:57:19;10.20;99.90
23719;DHT22;43322;52.230;5.702;2023-11-21T09:59:47;10.30;99.90
23719;DHT22;43322;52.230;5.702;2023-11-21T10:02:16;10.30;99.90
23719;DHT22;43322;52.230;5.702;2023-11-21T10:04:44;10.20;99.90
23719;DHT22;43322;52.230;5.702;2023-11-21T10:07:11;10.20;99.90
23719;DHT22;43322;52.230;5.702;2023-11-21T10:09:42;10.20;99.90
23719;DHT22;43322;52.230;5.702;2023-11-21T10:12:10;10.20;99.90
23719;DHT22;43322;52.230;5.702;2023-11-21T10:14:41;10.10;99.90
23719;DHT22;43322;52.230;5.702;2023-11-21T10:17:10;10.10;99.90
23719;DHT22;43322;52.230;5.702;2023-11-21T10:19:39;10.10;99.90
23719;DHT22;43322;52.230;5.702;2023-11-21T10:22:06;10.90;99.90
23719;DHT22;43322;52.230;5.702;2023-11-21T10:24:34;10.00;99.90
23719;DHT22;43322;52.230;5.702;2023-11-21T10:27:03;10.10;99.90
23719;DHT22;43322;52.230;5.702;2023-11-21T10:29:30;10.10;99.90
23719;DHT22;43322;52.230;5.702;2023-11-21T10:32:02;10.20;99.90
23719;DHT22;43322;52.230;5.702;2023-11-21T10:34:28;10.20;99.90
23719;DHT22;43322;52.230;5.702;2023-11-21T10:36:55;10.20;99.90
23719;DHT22;43322;52.230;5.702;2023-11-21T10:39:24;10.20;99.90
23719;DHT22;43322;52.230;5.702;2023-11-21T10:41:55;10.30;99.90
23719;DHT22;43322;52.230;5.702;2023-11-21T10:44:23;10.30;99.90
23719;DHT22;43322;52.230;5.702;2023-11-21T10:46:53;10.20;99.90
23719;DHT22;43322;52.230;5.702;2023-11-21T10:49:25;10.30;99.90
23719;DHT22;43322;52.230;5.702;2023-11-21T10:51:53;10.20;99.90
23719;DHT22;43322;52.230;5.702;2023-11-21T10:54:22;10.30;99.90
23719;DHT22;43322;52.230;5.702;2023-11-21T10:56:49;10.30;99.90
23719;DHT22;43322;52.230;5.702;2023-11-21T10:59:17;10.30;99.90
23719;DHT22;43322;52.230;5.702;2023-11-21T11:01:47;10.30;99.90
23719;DHT22;43322;52.230;5.702;2023-11-21T11:04:18;10.40;99.90
23719;DHT22;43322;52.230;5.702;2023-11-21T11:06:51;10.40;99.90
23719;DHT22;43322;52.230;5.702;2023-11-21T11:09:20;10.40;99.90
23719;DHT22;43322;52.230;5.702;2023-11-21T11:11:47;10.40;99.90
23719;DHT22;43322;52.230;5.702;2023-11-21T11:14:15;10.40;99.90
23719;DHT22;43322;52.230;5.702;2023-11-21T11:16:42;10.30;99.90
23719;DHT22;43322;52.230;5.702;2023-11-21T11:19:11;10.30;99.90
23719;DHT22;43322;52.230;5.702;2023-11-21T11:27:40;10.30;99.90
23719;DHT22;43322;52.230;5.702;2023-11-21T11:30:15;10.40;99.90
23719;DHT22;43322;52.230;5.702;2023-11-21T11:32:52;10.40;99.90
23719;DHT22;43322;52.230;5.702;2023-11-21T11:35:29;10.40;99.90
23719;DHT22;43322;52.230;5.702;2023-11-21T11:37:59;10.40;99.90
23719;DHT22;43322;52.230;5.702;2023-11-21T11:40:38;10.40;99.90
23719;DHT22;43322;52.230;5.702;2023-11-21T11:43:06;10.50;99.90
23719;DHT22;43322;52.230;5.702;2023-11-21T11:45:34;10.50;99.90
23719;DHT22;43322;52.230;5.702;2023-11-21T11:48:04;10.40;99.90
23719;DHT22;43322;52.230;5.702;2023-11-21T11:50:33;10.40;99.90
23719;DHT22;43322;52.230;5.702;2023-11-21T11:53:12;10.40;99.90
23719;DHT22;43322;52.230;5.702;2023-11-21T11:55:39;10.40;99.90
23719;DHT22;43322;52.230;5.702;2023-11-21T11:58:06;10.40;99.90
23719;DHT22;43322;52.230;5.702;2023-11-21T12:00:34;10.40;99.90
23719;DHT22;43322;52.230;5.702;2023-11-21T12:03:04;10.40;99.90
23719;DHT22;43322;52.230;5.702;2023-11-21T12:05:33;10.30;99.90
23719;DHT22;43322;52.230;5.702;2023-11-21T12:08:03;10.30;99.90
23719;DHT22;43322;52.230;5.702;2023-11-21T12:10:31;10.30;99.90
23719;DHT22;43322;52.230;5.702;2023-11-21T12:12:59;10.30;99.90
23719;DHT22;43322;52.230;5.702;2023-11-21T12:15:27;10.30;99.90
23719;DHT22;43322;52.230;5.702;2023-11-21T12:17:54;10.40;99.90
23719;DHT22;43322;52.230;5.702;2023-11-21T12:20:23;10.40;99.90
23719;DHT22;43322;52.230;5.702;2023-11-21T12:22:52;10.40;99.90
23719;DHT22;43322;52.230;5.702;2023-11-21T12:25:20;10.40;99.90
23719;DHT22;43322;52.230;5.702;2023-11-21T12:27:48;10.40;99.90
23719;DHT22;43322;52.230;5.702;2023-11-21T12:30:17;10.40;99.90
23719;DHT22;43322;52.230;5.702;2023-11-21T12:32:44;10.40;99.90
23719;DHT22;43322;52.230;5.702;2023-11-21T12:35:12;10.30;99.90
23719;DHT22;43322;52.230;5.702;2023-11-21T12:37:41;10.30;99.90
23719;DHT22;43322;52.230;5.702;2023-11-21T12:40:11;10.30;99.90
23719;DHT22;43322;52.230;5.702;2023-11-21T12:42:41;10.40;99.90
23719;DHT22;43322;52.230;5.702;2023-11-21T12:45:19;10.40;99.90
23719;DHT22;43322;52.230;5.702;2023-11-21T12:47:47;10.40;99.90
23719;DHT22;43322;52.230;5.702;2023-11-21T12:50:14;10.30;99.90
23719;DHT22;43322;52.230;5.702;2023-11-21T12:52:45;10.40;99.90
23719;DHT22;43322;52.230;5.702;2023-11-21T12:55:15;10.40;99.90
23719;DHT22;43322;52.230;5.702;2023-11-21T12:57:43;10.40;99.90
23719;DHT22;43322;52.230;5.702;2023-11-21T13:00:12;10.50;99.90
23719;DHT22;43322;52.230;5.702;2023-11-21T13:02:51;10.50;99.90
23719;DHT22;43322;52.230;5.702;2023-11-21T13:05:24;10.60;99.90
23719;DHT22;43322;52.230;5.702;2023-11-21T13:07:51;10.70;99.90
23719;DHT22;43322;52.230;5.702;2023-11-21T13:10:22;10.60;99.90
23719;DHT22;43322;52.230;5.702;2023-11-21T13:12:51;10.70;99.90
23719;DHT22;43322;52.230;5.702;2023-11-21T13:15:19;10.60;99.90
23719;DHT22;43322;52.230;5.702;2023-11-21T13:17:46;10.60;99.90
23719;DHT22;43322;52.230;5.702;2023-11-21T13:20:14;10.70;99.90
23719;DHT22;43322;52.230;5.702;2023-11-21T13:22:47;10.70;99.90
23719;DHT22;43322;52.230;5.702;2023-11-21T13:25:15;10.60;99.90
23719;DHT22;43322;52.230;5.702;2023-11-21T13:27:44;10.40;99.90
23719;DHT22;43322;52.230;5.702;2023-11-21T13:30:13;10.40;99.90
23719;DHT22;43322;52.230;5.702;2023-11-21T13:32:42;10.30;99.90
23719;DHT22;43322;52.230;5.702;2023-11-21T13:35:09;10.30;99.90
23719;DHT22;43322;52.230;5.702;2023-11-21T13:37:47;10.30;99.90
23719;DHT22;43322;52.230;5.702;2023-11-21T13:40:19;10.20;99.90
23719;DHT22;43322;52.230;5.702;2023-11-21T13:42:49;10.10;99.90
23719;DHT22;43322;52.230;5.702;2023-11-21T13:45:19;10.10;99.90
23719;DHT22;43322;52.230;5.702;2023-11-21T13:47:48;10.00;99.90
23719;DHT22;43322;52.230;5.702;2023-11-21T13:50:16;10.00;99.90
23719;DHT22;43322;52.230;5.702;2023-11-21T13:52:48;9.90;99.90
23719;DHT22;43322;52.230;5.702;2023-11-21T13:55:16;9.90;99.90
23719;DHT22;43322;52.230;5.702;2023-11-21T13:57:43;9.90;99.90
23719;DHT22;43322;52.230;5.702;2023-11-21T14:00:16;9.80;99.90
23719;DHT22;43322;52.230;5.702;2023-11-21T14:02:57;9.80;99.90
23719;DHT22;43322;52.230;5.702;2023-11-21T14:05:26;9.70;99.90
23719;DHT22;43322;52.230;5.702;2023-11-21T14:07:55;9.80;99.90
23719;DHT22;43322;52.230;5.702;2023-11-21T14:10:27;9.70;99.90
23719;DHT22;43322;52.230;5.702;2023-11-21T14:13:02;9.70;99.90
23719;DHT22;43322;52.230;5.702;2023-11-21T14:15:30;9.70;99.90
23719;DHT22;43322;52.230;5.702;2023-11-21T14:17:58;9.70;99.90
23719;DHT22;43322;52.230;5.702;2023-11-21T14:20:28;9.70;99.90
23719;DHT22;43322;52.230;5.702;2023-11-21T14:22:55;9.90;99.90
23719;DHT22;43322;52.230;5.702;2023-11-21T14:25:22;9.80;99.90
23719;DHT22;43322;52.230;5.702;2023-11-21T14:27:49;9.80;99.90
23719;DHT22;43322;52.230;5.702;2023-11-21T14:30:16;9.80;99.90
23719;DHT22;43322;52.230;5.702;2023-11-21T14:32:46;9.80;99.90
23719;DHT22;43322;52.230;5.702;2023-11-21T14:35:13;9.80;99.90
23719;DHT22;43322;52.230;5.702;2023-11-21T14:37:40;9.70;99.90
23719;DHT22;43322;52.230;5.702;2023-11-21T14:40:07;9.50;99.90
23719;DHT22;43322;52.230;5.702;2023-11-21T14:42:34;9.60;99.90
23719;DHT22;43322;52.230;5.702;2023-11-21T14:45:03;9.60;99.90
23719;DHT22;43322;52.230;5.702;2023-11-21T14:47:32;9.50;99.90
23719;DHT22;43322;52.230;5.702;2023-11-21T14:50:01;9.50;99.90
23719;DHT22;43322;52.230;5.702;2023-11-21T14:52:48;9.50;99.90
23719;DHT22;43322;52.230;5.702;2023-11-21T14:55:21;9.50;99.90
23719;DHT22;43322;52.230;5.702;2023-11-21T14:57:56;9.50;99.90
23719;DHT22;43322;52.230;5.702;2023-11-21T15:00:23;9.50;99.90
23719;DHT22;43322;52.230;5.702;2023-11-21T15:03:10;9.40;99.90
23719;DHT22;43322;52.230;5.702;2023-11-21T15:05:44;9.40;99.90
23719;DHT22;43322;52.230;5.702;2023-11-21T15:08:14;9.20;99.90
23719;DHT22;43322;52.230;5.702;2023-11-21T15:10:47;9.20;99.90
23719;DHT22;43322;52.230;5.702;2023-11-21T15:13:18;9.20;99.90
23719;DHT22;43322;52.230;5.702;2023-11-21T15:15:44;9.10;99.90
23719;DHT22;43322;52.230;5.702;2023-11-21T15:18:11;9.10;99.90
23719;DHT22;43322;52.230;5.702;2023-11-21T15:20:39;9.10;99.90
23719;DHT22;43322;52.230;5.702;2023-11-21T15:23:09;9.10;99.90
23719;DHT22;43322;52.230;5.702;2023-11-21T15:25:35;9.10;99.90
23719;DHT22;43322;52.230;5.702;2023-11-21T15:28:02;9.10;99.90
23719;DHT22;43322;52.230;5.702;2023-11-21T15:30:30;9.10;99.90
23719;DHT22;43322;52.230;5.702;2023-11-21T15:32:57;8.90;99.90
23719;DHT22;43322;52.230;5.702;2023-11-21T15:35:24;8.70;99.90
23719;DHT22;43322;52.230;5.702;2023-11-21T15:37:52;8.70;99.90
23719;DHT22;43322;52.230;5.702;2023-11-21T15:40:21;8.70;99.90
23719;DHT22;43322;52.230;5.702;2023-11-21T15:42:47;8.60;99.90
23719;DHT22;43322;52.230;5.702;2023-11-21T15:45:15;8.60;99.90
23719;DHT22;43322;52.230;5.702;2023-11-21T15:47:44;8.40;99.90
23719;DHT22;43322;52.230;5.702;2023-11-21T15:50:11;8.40;99.90
23719;DHT22;43322;52.230;5.702;2023-11-21T15:52:39;8.30;99.90
23719;DHT22;43322;52.230;5.702;2023-11-21T15:55:06;8.20;99.90